Latest Coastal Weather Observations for Cape Nelson

IDS60701

Issued at 8:11 pm CST Monday 2 May 2016 (issued every 10 minutes, with the page automatically refreshed every 10 minutes)

About coastal observations | Map of coastal stations | Coastal observations for SA | Marine services | Other Formats
Station Details ID: 090184 Name: CAPE NELSON LIGHTHOUSE Lat: -38.43 Lon: 141.54 Height: 45.4 m
Data from the previous 72 hours. | See also: Recent months at Cape Nelson
Date/Time
CST
Temp

°C
Wind Pressure Rain
since 9am
mm
Weather Cloud Vis
km
Sea
Height
m
Swell
Dir
 
Speed
knots
Gust
knots
hPa Trend Height
m
Period
s
Dir
02/08:00pm 15.4 NNW 20 32 1002.4 - 0.2 - - - - - - -
02/07:30pm 15.6 NW 19 29 1002.9 - 0.2 - - - - - - -
02/07:12pm 15.4 NNW 18 28 1003.3 - 0.2 - - - - - - -
02/07:00pm 15.5 NNW 20 29 1003.4 - 0.2 - - - - - - -
02/06:45pm 15.4 NNW 18 28 1003.5 - 0.2 - - - - - - -
02/06:30pm 15.2 NNW 19 27 1003.4 - 0.2 - - - - - - -
02/06:01pm 15.2 NNW 20 32 1003.2 - 0.2 - - - - - - -
02/06:00pm 15.2 NNW 19 28 1003.2 - 0.2 - - - - - - -
02/05:30pm 15.5 NNW 19 30 1003.5 - 0.2 - - - - - - -
02/05:00pm 15.9 NW 18 29 1003.4 - 0.2 - - - - - - -
02/04:30pm 15.3 NW 20 30 1003.3 - 0.2 - - - - - - -
02/04:00pm 16.5 NW 18 28 1003.6 - 0.0 - - - - - - -
02/03:35pm 17.0 NNW 15 27 1003.7 - 0.0 - - - - - - -
02/03:30pm 17.0 NNW 16 23 1003.7 - 0.0 - - - - - - -
02/03:05pm 17.7 NW 15 25 1003.9 - 0.0 - - - - - - -
02/03:00pm 17.7 NW 16 22 1004.0 - 0.0 - - - - - - -
02/02:31pm 17.9 NW 20 30 1004.2 - 0.0 - - - - - - -
02/02:30pm 17.8 NW 21 30 1004.2 - 0.0 - - - - - - -
02/02:00pm 17.9 NNW 19 32 1004.3 - 0.0 - - - - - - -
02/01:30pm 18.0 NW 20 32 1004.9 - 0.0 - - - - - - -
02/01:05pm 17.4 NW 21 31 1005.3 - 0.0 - - - - - - -
02/01:00pm 17.4 NW 20 27 1005.4 - 0.0 - - - - - - -
02/12:30pm 16.5 NNW 20 31 1005.7 - 0.0 - - - - - - -
02/12:00pm 17.3 NW 20 33 1006.3 - 0.0 - - - - - - -
02/11:30am 16.8 NW 20 30 1006.6 - 0.0 - - - - - - -
02/11:00am 16.1 NNW 23 34 1007.0 - 0.0 - - - - - - -
02/10:30am 15.9 NNW 19 31 1007.5 - 0.0 - - - - - - -
02/10:00am 15.2 NNW 19 29 1007.7 - 0.0 - - - - - - -
02/09:30am 14.7 NNW 18 29 1008.3 - 0.0 - - - - - - -
02/09:00am 13.7 NNW 18 28 1008.4 - 0.0 - - - - - - -
02/08:45am 13.6 NNW 17 27 1008.7 - 0.0 - - - - - - -
02/08:30am 13.2 NNW 18 27 1008.8 - 0.6 - - - - - - -
02/08:00am 11.6 NNW 17 26 1009.0 - 0.6 - - - - - - -
02/07:31am 10.8 NNW 17 27 1009.2 - 0.6 - - - - - - -
02/07:30am 10.7 NNW 18 27 1009.2 - 0.6 - - - - - - -
02/07:10am 10.6 NNW 16 26 1009.3 - 0.6 - - - - - - -
02/07:00am 10.6 NNW 13 21 1009.4 - 0.6 - - - - - - -
02/06:54am 10.7 NNW 15 25 1009.5 - 0.6 - - - - - - -
02/06:30am 10.5 NNW 16 25 1009.7 - 0.6 - - - - - - -
02/06:15am 10.3 NNW 17 27 1009.7 - 0.6 - - - - - - -
02/06:00am 10.0 NNW 17 26 1009.7 - 0.6 - - - - - - -
02/05:42am 10.1 NNW 15 25 1009.9 - 0.6 - - - - - - -
02/05:30am 10.1 NNW 15 22 1009.9 - 0.6 - - - - - - -
02/05:00am 10.3 NNW 12 17 1010.3 - 0.6 - - - - - - -
02/04:31am 10.6 NNW 15 25 1010.9 - 0.6 - - - - - - -
02/04:30am 10.6 NNW 14 25 1010.9 - 0.6 - - - - - - -
02/04:24am 10.6 NNW 15 25 1010.8 - 0.6 - - - - - - -
02/04:00am 10.3 NNW 11 17 1010.7 - 0.6 - - - - - - -
02/03:30am 10.5 NNW 14 21 1010.9 - 0.6 - - - - - - -
02/03:00am 10.3 NNW 14 20 1011.0 - 0.6 - - - - - - -
02/02:45am 10.6 NNW 17 28 1011.0 - 0.6 - - - - - - -
02/02:30am 10.2 NNW 15 21 1011.5 - 0.6 - - - - - - -
02/02:00am 9.8 NNW 14 20 1012.0 - 0.6 - - - - - - -
02/01:30am 10.2 NNW 12 17 1012.3 - 0.6 - - - - - - -
02/01:00am 9.8 NNW 14 21 1012.5 - 0.6 - - - - - - -
02/12:30am 9.7 NNW 13 19 1012.5 - 0.6 - - - - - - -
02/12:00am 9.9 NNW 13 19 1012.9 - 0.6 - - - - - - -
 
Date/Time
CST
Temp

°C
Wind Pressure Rain
since 9am
mm
Weather Cloud Vis
km
Sea
Height
m
Swell
Dir
 
Speed
knots
Gust
knots
hPa Trend Height
m
Period
s
Dir
01/11:30pm 10.1 NNW 13 17 1013.4 - 0.4 Recent precip. - - - - - -
01/11:00pm 10.5 NNW 14 23 1013.4 - 0.4 - - - - - - -
01/10:30pm 10.8 NNW 14 19 1013.8 - 0.0 - - - - - - -
01/10:00pm 10.7 NNW 12 16 1014.0 - 0.0 - - - - - - -
01/09:30pm 11.9 NNW 11 15 1014.1 - 0.0 - - - - - - -
01/09:07pm 13.6 WNW 15 26 1014.1 - 0.0 - - - - - - -
01/09:00pm 13.7 W 15 24 1014.0 - 0.0 - - - - - - -
01/08:30pm 13.6 W 14 24 1014.1 - 0.0 - - - - - - -
01/08:00pm 12.9 WNW 12 16 1014.0 - 0.0 - - - - - - -
01/07:30pm 13.4 W 15 21 1014.0 - 0.0 - - - - - - -
01/07:00pm 13.5 W 14 23 1014.0 - 0.0 - - - - - - -
01/06:30pm 13.5 W 17 22 1013.9 - 0.0 - - - - - - -
01/06:00pm 13.6 W 13 23 1013.8 - 0.0 - - - - - - -
01/05:30pm 13.6 W 19 26 1013.4 - 0.0 - - - - - - -
01/05:00pm 13.5 W 19 29 1013.3 - 0.0 - - - - - - -
01/04:30pm 13.8 W 21 31 1013.2 - 0.0 - - - - - - -
01/04:26pm 13.7 W 21 31 1013.2 - 0.0 - - - - - - -
01/04:19pm 13.8 W 20 29 1013.2 - 0.0 - - - - - - -
01/04:02pm 13.5 NW 14 28 1013.0 - 0.0 - - - - - - -
01/04:00pm 13.8 NW 13 28 1012.8 - 0.0 - - - - - - -
01/03:31pm 13.9 WNW 16 28 1012.6 - 0.0 - - - - - - -
01/03:30pm 14.0 WNW 15 27 1012.5 - 0.0 - - - - - - -
01/03:04pm 13.9 WNW 17 29 1012.2 - 0.0 - - - - - - -
01/03:00pm 14.0 NNW 13 24 1012.0 - 0.0 - - - - - - -
01/02:33pm 13.7 NW 18 31 1011.5 - 0.0 - - - - - - -
01/02:30pm 14.5 WNW 21 31 1011.5 - 0.0 - - - - - - -
01/02:02pm 14.3 WNW 20 34 1011.4 - 0.0 - - - - - - -
01/02:00pm 14.5 WNW 18 27 1011.2 - 0.0 - - - - - - -
01/01:37pm 14.0 WNW 17 28 1010.8 - 0.0 - - - - - - -
01/01:30pm 13.9 N 12 21 1010.8 - 0.0 - - - - - - -
01/01:15pm 14.3 W 21 33 1010.7 - 0.0 - - - - - - -
01/01:13pm 14.3 W 23 33 1010.7 - 0.0 - - - - - - -
01/01:00pm 14.5 W 23 31 1010.7 - 0.0 - - - - - - -
01/12:30pm 14.1 W 24 34 1010.7 - 0.0 - - - - - - -
01/12:01pm 14.3 W 21 33 1010.3 - 0.0 - - - - - - -
01/12:00pm 14.1 W 21 33 1010.4 - 0.0 - - - - - - -
01/11:59am 14.2 W 20 33 1010.4 - 0.0 - - - - - - -
01/11:31am 14.4 WNW 17 31 1009.8 - 0.0 - - - - - - -
01/11:30am 14.3 WNW 17 25 1009.8 - 0.0 - - - - - - -
01/11:29am 14.4 WNW 17 30 1009.9 - 0.0 - - - - - - -
01/11:00am 13.7 W 25 35 1010.0 - 0.0 - - - - - - -
01/10:30am 14.2 W 26 38 1009.4 - 0.0 - - - - - - -
01/10:11am 13.4 W 20 31 1009.1 - 0.0 - - - - - - -
01/10:00am 13.5 WNW 18 28 1008.7 - 0.0 - - - - - - -
01/09:49am 13.6 NNW 16 31 1008.5 - 0.0 - - - - - - -
01/09:38am 13.4 NW 16 26 1007.9 - 0.0 - - - - - - -
01/09:30am 13.7 NW 15 25 1007.6 - 0.0 - - - - - - -
01/09:07am 13.4 NW 16 34 1007.4 - 0.0 - - - - - - -
01/09:00am 13.2 NW 16 25 1007.1 - 0.0 - - - - - - -
01/08:30am 12.6 W 18 29 1006.8 - 8.2 Rain - - - - - -
01/08:29am 12.5 W 17 28 1006.8 - 8.2 - - - - - - -
01/08:00am 11.9 NNE 12 21 1006.3 - 6.0 - - - - - - -
01/07:30am 11.7 W 17 23 1005.9 - 5.6 - - - - - - -
01/07:29am 11.5 W 17 23 1005.8 - 5.2 - - - - - - -
01/07:00am 12.6 W 21 33 1005.1 - 3.0 - - - - - - -
01/06:43am 13.7 W 20 30 1004.2 - 2.4 - - - - - - -
01/06:30am 13.8 W 21 29 1003.8 - 2.4 - - - - - - -
01/06:00am 13.5 W 19 29 1003.3 - 2.4 - - - - - - -
01/05:33am 12.9 WNW 19 30 1002.8 - 2.4 - - - - - - -
01/05:30am 13.2 WNW 18 30 1002.7 - 2.4 - - - - - - -
01/05:12am 12.6 N 16 25 1002.1 - 2.4 - - - - - - -
01/05:06am 13.2 WNW 18 29 1001.8 - 2.4 - - - - - - -
01/05:00am 13.4 W 22 32 1001.9 - 2.4 - - - - - - -
01/04:30am 13.2 W 24 36 1001.8 - 2.4 - - - - - - -
01/04:04am 13.1 W 27 38 1001.1 - 2.4 - - - - - - -
01/04:00am 13.1 W 26 34 1001.1 - 2.4 - - - - - - -
01/03:31am 12.8 W 25 35 1000.5 - 1.0 - - - - - - -
01/03:30am 13.1 W 26 35 1000.5 - 0.8 - - - - - - -
01/03:00am 13.2 W 26 36 1000.0 - 0.0 - - - - - - -
01/02:30am 14.1 W 27 40 999.7 - 0.0 - - - - - - -
01/02:17am 14.2 W 28 42 999.4 - 0.0 - - - - - - -
01/02:00am 15.0 NW 25 38 999.6 - 0.0 - - - - - - -
01/01:30am 16.1 NW 21 31 999.1 - 0.0 - - - - - - -
01/01:00am 17.8 NW 17 30 999.4 - 0.0 - - - - - - -
01/12:42am 18.0 NNW 17 28 999.6 - 0.0 - - - - - - -
01/12:30am 18.0 NNW 17 26 999.9 - 0.0 - - - - - - -
01/12:28am 18.0 NNW 16 26 999.9 - 0.0 - - - - - - -
01/12:00am 18.2 NNW 15 23 999.9 - 0.0 - - - - - - -
 
Date/Time
CST
Temp

°C
Wind Pressure Rain
since 9am
mm
Weather Cloud Vis
km
Sea
Height
m
Swell
Dir
 
Speed
knots
Gust
knots
hPa Trend Height
m
Period
s
Dir
30/11:30pm 17.5 NNW 13 17 1000.4 - 0.0 - - - - - - -
30/11:00pm 17.9 NNW 14 21 1000.7 - 0.0 - - - - - - -
30/10:30pm 17.3 N 12 19 1001.4 - 0.0 - - - - - - -
30/10:00pm 16.9 N 9 16 1002.0 - 0.0 - - - - - - -
30/09:30pm 17.2 N 9 13 1002.8 - 0.0 - - - - - - -
30/09:00pm 16.9 N 9 13 1003.8 - 0.0 - - - - - - -
30/08:30pm 17.6 NNW 9 13 1004.2 - 0.0 - - - - - - -
30/08:00pm 16.9 N 10 15 1004.4 - 0.0 - - - - - - -
30/07:30pm 16.7 NNE 9 13 1004.7 - 0.0 - - - - - - -
30/07:00pm 16.1 NNE 9 11 1005.0 - 0.0 - - - - - - -
30/06:30pm 16.3 N 7 9 1005.3 - 0.0 - - - - - - -
30/06:00pm 16.3 N 7 8 1005.5 - 0.0 - - - - - - -
30/05:30pm 17.8 NNW 6 8 1005.6 - 0.0 - - - - - - -
30/05:00pm 19.2 NNW 7 10 1005.8 - 0.0 - - - - - - -
30/04:30pm 20.5 NNW 13 17 1006.1 - 0.0 - - - - - - -
30/04:05pm 21.0 NNW 15 25 1006.2 - 0.0 - - - - - - -
30/04:00pm 21.1 NNW 16 25 1006.2 - 0.0 - - - - - - -
30/03:30pm 21.5 NNW 15 22 1006.4 - 0.0 - - - - - - -
30/03:00pm 22.2 NNW 16 26 1006.7 - 0.0 - - - - - - -
30/02:38pm 22.3 NNW 15 26 1006.8 - 0.0 - - - - - - -
30/02:30pm 22.5 NW 13 19 1006.9 - 0.0 - - - - - - -
30/02:00pm 21.9 NW 14 19 1007.2 - 0.0 - - - - - - -
30/01:30pm 22.0 NW 13 17 1007.6 - 0.0 - - - - - - -
30/01:00pm 21.8 NW 16 21 1008.2 - 0.0 - - - - - - -
30/12:30pm 21.4 NW 15 22 1008.8 - 0.0 - - - - - - -
30/12:00pm 21.0 NW 16 24 1009.3 - 0.0 - - - - - - -
30/11:30am 20.9 NW 15 21 1009.7 - 0.0 - - - - - - -
30/11:00am 20.4 NW 13 21 1010.0 - 0.0 - - - - - - -
30/10:30am 19.5 NNW 15 23 1010.1 - 0.0 - - - - - - -
30/10:00am 19.4 NNW 12 17 1010.1 - 0.0 - - - - - - -
30/09:30am 18.5 NNW 11 17 1010.4 - 0.0 - - - - - - -
30/09:00am 17.4 NNW 12 17 1010.7 - 0.0 - - - - - - -
30/08:30am 16.8 NNW 13 18 1010.7 - 3.0 - - - - - - -
30/08:00am 15.6 NNW 12 17 1011.0 - 3.0 - - - - - - -
30/07:30am 14.8 NNW 12 17 1010.8 - 3.0 - - - - - - -
30/07:00am 14.3 NNW 12 16 1010.4 - 3.0 - - - - - - -
30/06:30am 14.2 NNW 11 16 1010.3 - 3.0 - - - - - - -
30/06:00am 14.3 NNW 12 16 1010.4 - 3.0 - - - - - - -
30/05:30am 14.5 NNW 12 16 1010.4 - 3.0 - - - - - - -
30/05:00am 14.5 NNW 11 17 1010.3 - 3.0 - - - - - - -
30/04:30am 14.7 NNW 11 17 1010.2 - 3.0 - - - - - - -
30/04:00am 14.9 NNW 11 17 1010.1 - 2.8 - - - - - - -
30/03:30am 14.9 NNW 12 17 1009.9 - 2.8 - - - - - - -
30/03:00am 14.4 NNW 11 15 1010.0 - 2.8 - - - - - - -
30/02:30am 14.5 N 11 14 1010.2 - 2.8 - - - - - - -
30/02:00am 14.6 N 11 16 1010.3 - 2.8 - - - - - - -
30/01:30am 14.7 N 12 16 1010.5 - 2.8 - - - - - - -
30/01:00am 14.5 N 11 18 1010.6 - 2.8 - - - - - - -
30/12:30am 14.3 N 10 15 1010.7 - 2.8 - - - - - - -
30/12:00am 14.2 N 9 13 1010.8 - 2.8 - - - - - - -
 
Date/Time
CST
Temp

°C
Wind Pressure Rain
since 9am
mm
Weather Cloud Vis
km
Sea
Height
m
Swell
Dir
 
Speed
knots
Gust
knots
hPa Trend Height
m
Period
s
Dir
29/11:30pm 14.3 N 11 15 1011.0 - 2.8 - - - - - - -
29/11:00pm 14.6 N 11 15 1011.3 - 2.8 - - - - - - -
29/10:30pm 14.7 N 11 15 1011.6 - 2.8 - - - - - - -
29/10:00pm 14.7 N 11 15 1011.9 - 2.8 - - - - - - -
29/09:30pm 15.0 N 10 14 1012.0 - 2.8 - - - - - - -
29/09:00pm 15.1 NNW 10 15 1011.9 - 2.8 - - - - - - -
29/08:30pm 15.0 N 11 15 1011.7 - 2.8 - - - - - - -
29/08:00pm 15.0 N 11 15 1011.4 - 2.8 - - - - - - -

Other Formats:

Comma delimited format used in spreadsheet applications
http://www.bom.gov.au/fwo/IDS60701/IDS60701.94826.axf

JavaScript Object Notation format (JSON) in row-major order
http://www.bom.gov.au/fwo/IDS60701/IDS60701.94826.json